SIA921 WSSS-RPLL
Flight info
| Callsign | SIA921 |
|---|---|
| Flight time | N/A |
| Altitude | 39000 |
| Route | TOMAN3E TOMAN L625 LUSMO N884 LUBAN LUBAN1D |
| Aircraft | A339/H-SADE1E2E3GHIJ3J5M1P2RWXY/LB2D1 |
Departure
| Time | N/A |
|---|---|
| Airport | Singapore Changi Airport (WSSS) |
Arrival
| Time | 2026-05-01 12:33 |
|---|---|
| Airport | Ninoy Aquino International Airport (RPLL) |
| Time | Latitude | Longitude | Altitude | Speed | Heading |
|---|---|---|---|---|---|
| 2026-05-01 11:41 | 11.06327 | 116.41138 | 38851 ft | 502 kts | 52° |
| 2026-05-01 11:42 | 11.10622 | 116.46759 | 38850 ft | 503 kts | 52° |
| 2026-05-01 11:42 | 11.14895 | 116.52353 | 38851 ft | 503 kts | 52° |
| 2026-05-01 11:43 | 11.19208 | 116.57985 | 38853 ft | 504 kts | 52° |
| 2026-05-01 11:43 | 11.23533 | 116.63633 | 38854 ft | 504 kts | 52° |
| 2026-05-01 11:44 | 11.29986 | 116.72078 | 38852 ft | 504 kts | 52° |
| 2026-05-01 11:44 | 11.34286 | 116.77715 | 38853 ft | 504 kts | 52° |
| 2026-05-01 11:45 | 11.37852 | 116.82391 | 38855 ft | 505 kts | 52° |
| 2026-05-01 11:45 | 11.40749 | 116.86193 | 38850 ft | 505 kts | 52° |
| 2026-05-01 11:46 | 11.47200 | 116.94660 | 38852 ft | 506 kts | 52° |
| 2026-05-01 11:46 | 11.51529 | 117.00344 | 38856 ft | 506 kts | 52° |
| 2026-05-01 11:47 | 11.55827 | 117.05991 | 38854 ft | 506 kts | 52° |
| 2026-05-01 11:47 | 11.60145 | 117.11671 | 38857 ft | 505 kts | 52° |
| 2026-05-01 11:48 | 11.64449 | 117.17336 | 38855 ft | 505 kts | 52° |
| 2026-05-01 11:48 | 11.68729 | 117.22971 | 38853 ft | 506 kts | 52° |
| 2026-05-01 11:49 | 11.73067 | 117.28686 | 38856 ft | 507 kts | 52° |
| 2026-05-01 11:49 | 11.77373 | 117.34360 | 38855 ft | 507 kts | 52° |
| 2026-05-01 11:50 | 11.81682 | 117.40040 | 38852 ft | 507 kts | 52° |
| 2026-05-01 11:50 | 11.85996 | 117.45733 | 38853 ft | 507 kts | 52° |
| 2026-05-01 11:51 | 11.90334 | 117.51460 | 38853 ft | 507 kts | 52° |
| 2026-05-01 11:51 | 11.94626 | 117.57130 | 38853 ft | 508 kts | 52° |
| 2026-05-01 11:52 | 11.98966 | 117.62867 | 38853 ft | 508 kts | 52° |
| 2026-05-01 11:52 | 12.03254 | 117.68539 | 38854 ft | 508 kts | 52° |
| 2026-05-01 11:53 | 12.07597 | 117.74287 | 38853 ft | 509 kts | 52° |
| 2026-05-01 11:53 | 12.11904 | 117.79989 | 38858 ft | 509 kts | 52° |
| 2026-05-01 11:54 | 12.16221 | 117.85710 | 38870 ft | 509 kts | 52° |
| 2026-05-01 11:54 | 12.20556 | 117.91456 | 38876 ft | 509 kts | 52° |
| 2026-05-01 11:55 | 12.24862 | 117.97169 | 38873 ft | 510 kts | 52° |
| 2026-05-01 11:55 | 12.29205 | 118.02934 | 38879 ft | 510 kts | 52° |
| 2026-05-01 11:56 | 12.33520 | 118.08665 | 38876 ft | 510 kts | 52° |
| 2026-05-01 11:56 | 12.37847 | 118.14415 | 38876 ft | 511 kts | 52° |
| 2026-05-01 11:57 | 12.42199 | 118.20201 | 38875 ft | 512 kts | 52° |
| 2026-05-01 11:57 | 12.46520 | 118.25952 | 38872 ft | 511 kts | 52° |
| 2026-05-01 11:58 | 12.50848 | 118.31716 | 38874 ft | 512 kts | 52° |
| 2026-05-01 11:59 | 12.57353 | 118.40384 | 38874 ft | 511 kts | 52° |
| 2026-05-01 11:59 | 12.61659 | 118.46126 | 38873 ft | 511 kts | 52° |
| 2026-05-01 12:00 | 12.68151 | 118.54791 | 38868 ft | 511 kts | 52° |
| 2026-05-01 12:01 | 12.74616 | 118.63426 | 38863 ft | 512 kts | 52° |
| 2026-05-01 12:01 | 12.78960 | 118.69235 | 38862 ft | 512 kts | 52° |
| 2026-05-01 12:02 | 12.83297 | 118.75038 | 38858 ft | 511 kts | 52° |
| 2026-05-01 12:02 | 12.87626 | 118.80834 | 38489 ft | 512 kts | 52° |
| 2026-05-01 12:02 | 12.89776 | 118.83715 | 37729 ft | 510 kts | 52° |
| 2026-05-01 12:03 | 12.91904 | 118.86568 | 37071 ft | 496 kts | 52° |
| 2026-05-01 12:03 | 12.93966 | 118.89336 | 36526 ft | 492 kts | 52° |
| 2026-05-01 12:03 | 12.96056 | 118.92140 | 35895 ft | 490 kts | 52° |
| 2026-05-01 12:03 | 12.98113 | 118.94902 | 35252 ft | 488 kts | 52° |
| 2026-05-01 12:04 | 13.00158 | 118.97648 | 34641 ft | 486 kts | 52° |
| 2026-05-01 12:04 | 13.02218 | 119.00413 | 34027 ft | 483 kts | 51° |
| 2026-05-01 12:04 | 13.04260 | 119.03116 | 33406 ft | 482 kts | 51° |
| 2026-05-01 12:04 | 13.06321 | 119.05823 | 32782 ft | 480 kts | 51° |
| 2026-05-01 12:05 | 13.08353 | 119.08490 | 32210 ft | 479 kts | 51° |
| 2026-05-01 12:05 | 13.12354 | 119.13751 | 31286 ft | 472 kts | 51° |
| 2026-05-01 12:05 | 13.14220 | 119.16209 | 30872 ft | 469 kts | 51° |
| 2026-05-01 12:06 | 13.16195 | 119.18815 | 30461 ft | 464 kts | 51° |
| 2026-05-01 12:06 | 13.18176 | 119.21429 | 30046 ft | 460 kts | 51° |
| 2026-05-01 12:06 | 13.20138 | 119.24019 | 29648 ft | 455 kts | 51° |
| 2026-05-01 12:06 | 13.22063 | 119.26561 | 29254 ft | 451 kts | 51° |
| 2026-05-01 12:07 | 13.23994 | 119.29113 | 28856 ft | 447 kts | 51° |
| 2026-05-01 12:07 | 13.25875 | 119.31599 | 28468 ft | 443 kts | 51° |
| 2026-05-01 12:07 | 13.27749 | 119.34077 | 28084 ft | 439 kts | 51° |
| 2026-05-01 12:07 | 13.29611 | 119.36539 | 27699 ft | 435 kts | 51° |
| 2026-05-01 12:08 | 13.31471 | 119.38998 | 27316 ft | 431 kts | 51° |
| 2026-05-01 12:08 | 13.33294 | 119.41411 | 26935 ft | 427 kts | 52° |
| 2026-05-01 12:08 | 13.35100 | 119.43801 | 26554 ft | 424 kts | 52° |
| 2026-05-01 12:08 | 13.36896 | 119.46179 | 26170 ft | 420 kts | 52° |
| 2026-05-01 12:09 | 13.38675 | 119.48534 | 25784 ft | 417 kts | 52° |
| 2026-05-01 12:09 | 13.40452 | 119.50888 | 25398 ft | 414 kts | 52° |
| 2026-05-01 12:09 | 13.42204 | 119.53209 | 25015 ft | 411 kts | 52° |
| 2026-05-01 12:09 | 13.43965 | 119.55542 | 24629 ft | 408 kts | 52° |
| 2026-05-01 12:10 | 13.45683 | 119.57820 | 24248 ft | 405 kts | 52° |
| 2026-05-01 12:10 | 13.49107 | 119.62362 | 23470 ft | 399 kts | 52° |
| 2026-05-01 12:10 | 13.50807 | 119.64618 | 23091 ft | 396 kts | 53° |
| 2026-05-01 12:11 | 13.54162 | 119.69072 | 22338 ft | 390 kts | 53° |
| 2026-05-01 12:11 | 13.55661 | 119.71062 | 22009 ft | 387 kts | 53° |
| 2026-05-01 12:11 | 13.57321 | 119.73271 | 21632 ft | 385 kts | 53° |
| 2026-05-01 12:12 | 13.58938 | 119.75419 | 21258 ft | 383 kts | 53° |
| 2026-05-01 12:12 | 13.60576 | 119.77598 | 20871 ft | 381 kts | 53° |
| 2026-05-01 12:12 | 13.62179 | 119.79728 | 20482 ft | 379 kts | 53° |
| 2026-05-01 12:12 | 13.63788 | 119.81866 | 19947 ft | 374 kts | 53° |
| 2026-05-01 12:13 | 13.65358 | 119.83953 | 19443 ft | 364 kts | 53° |
| 2026-05-01 12:13 | 13.66898 | 119.86000 | 18923 ft | 359 kts | 53° |
| 2026-05-01 12:13 | 13.68412 | 119.88015 | 18419 ft | 354 kts | 53° |
| 2026-05-01 12:13 | 13.69904 | 119.90001 | 18001 ft | 349 kts | 53° |
| 2026-05-01 12:14 | 13.71363 | 119.91944 | 17622 ft | 345 kts | 53° |
| 2026-05-01 12:14 | 13.72847 | 119.93922 | 17290 ft | 346 kts | 53° |
| 2026-05-01 12:14 | 13.74308 | 119.95869 | 16912 ft | 346 kts | 53° |
| 2026-05-01 12:14 | 13.75775 | 119.97826 | 16539 ft | 345 kts | 53° |
| 2026-05-01 12:15 | 13.77219 | 119.99754 | 16186 ft | 344 kts | 53° |
| 2026-05-01 12:15 | 13.78683 | 120.01704 | 15830 ft | 342 kts | 53° |
| 2026-05-01 12:15 | 13.80130 | 120.03635 | 15492 ft | 340 kts | 53° |
| 2026-05-01 12:15 | 13.81578 | 120.05566 | 15145 ft | 338 kts | 53° |
| 2026-05-01 12:16 | 13.83015 | 120.07481 | 14789 ft | 336 kts | 53° |
| 2026-05-01 12:16 | 13.84427 | 120.09365 | 14447 ft | 334 kts | 53° |
| 2026-05-01 12:16 | 13.85839 | 120.11255 | 14100 ft | 332 kts | 54° |
| 2026-05-01 12:16 | 13.87226 | 120.13171 | 13718 ft | 331 kts | 54° |
| 2026-05-01 12:17 | 13.88586 | 120.15067 | 13347 ft | 330 kts | 54° |
| 2026-05-01 12:17 | 13.89941 | 120.16958 | 12978 ft | 329 kts | 54° |
| 2026-05-01 12:17 | 13.91301 | 120.18857 | 12600 ft | 328 kts | 54° |
| 2026-05-01 12:17 | 13.92646 | 120.20734 | 12237 ft | 326 kts | 54° |
| 2026-05-01 12:18 | 13.94004 | 120.22628 | 11877 ft | 325 kts | 54° |
| 2026-05-01 12:18 | 13.95335 | 120.24485 | 11513 ft | 324 kts | 54° |
| 2026-05-01 12:18 | 13.96672 | 120.26349 | 11149 ft | 322 kts | 54° |
| 2026-05-01 12:18 | 13.98017 | 120.28222 | 10787 ft | 320 kts | 54° |
| 2026-05-01 12:19 | 13.99320 | 120.30038 | 10429 ft | 319 kts | 54° |
| 2026-05-01 12:19 | 14.00636 | 120.31873 | 10131 ft | 315 kts | 54° |
| 2026-05-01 12:19 | 14.01913 | 120.33655 | 10050 ft | 304 kts | 54° |
| 2026-05-01 12:19 | 14.03142 | 120.35370 | 9984 ft | 292 kts | 54° |
| 2026-05-01 12:20 | 14.04324 | 120.37020 | 9935 ft | 282 kts | 54° |
| 2026-05-01 12:20 | 14.05477 | 120.38631 | 9804 ft | 275 kts | 54° |
| 2026-05-01 12:20 | 14.06597 | 120.40198 | 9491 ft | 275 kts | 54° |
| 2026-05-01 12:20 | 14.07735 | 120.41789 | 9195 ft | 274 kts | 54° |
| 2026-05-01 12:21 | 14.08875 | 120.43381 | 8919 ft | 273 kts | 54° |
| 2026-05-01 12:21 | 14.09999 | 120.44930 | 8653 ft | 272 kts | 51° |
| 2026-05-01 12:21 | 14.11293 | 120.46358 | 8437 ft | 269 kts | 46° |
| 2026-05-01 12:21 | 14.12571 | 120.47663 | 8273 ft | 264 kts | 46° |
| 2026-05-01 12:22 | 14.13653 | 120.48766 | 8148 ft | 266 kts | 46° |
| 2026-05-01 12:22 | 14.14357 | 120.49491 | 8076 ft | 271 kts | 46° |
| 2026-05-01 12:22 | 14.15687 | 120.50873 | 7921 ft | 272 kts | 47° |
| 2026-05-01 12:22 | 14.17015 | 120.52264 | 7752 ft | 272 kts | 47° |
| 2026-05-01 12:23 | 14.18343 | 120.53662 | 7532 ft | 271 kts | 47° |
| 2026-05-01 12:23 | 14.19666 | 120.55059 | 7284 ft | 270 kts | 47° |
| 2026-05-01 12:23 | 14.20964 | 120.56434 | 7028 ft | 269 kts | 47° |
| 2026-05-01 12:23 | 14.22273 | 120.57823 | 6759 ft | 268 kts | 47° |
| 2026-05-01 12:24 | 14.23577 | 120.59207 | 6497 ft | 266 kts | 47° |
| 2026-05-01 12:24 | 14.24860 | 120.60571 | 6223 ft | 266 kts | 47° |
| 2026-05-01 12:24 | 14.26159 | 120.61950 | 5949 ft | 265 kts | 47° |
| 2026-05-01 12:24 | 14.27432 | 120.63302 | 5681 ft | 264 kts | 47° |
| 2026-05-01 12:25 | 14.28716 | 120.64665 | 5415 ft | 263 kts | 47° |
| 2026-05-01 12:25 | 14.31263 | 120.67371 | 5006 ft | 259 kts | 48° |
| 2026-05-01 12:25 | 14.32450 | 120.68735 | 4995 ft | 249 kts | 57° |
| 2026-05-01 12:26 | 14.33336 | 120.70218 | 4999 ft | 237 kts | 62° |
| 2026-05-01 12:26 | 14.34856 | 120.73057 | 4978 ft | 216 kts | 62° |
| 2026-05-01 12:26 | 14.35576 | 120.74397 | 4974 ft | 205 kts | 62° |
| 2026-05-01 12:27 | 14.36253 | 120.75639 | 4970 ft | 193 kts | 62° |
| 2026-05-01 12:27 | 14.37540 | 120.77979 | 4670 ft | 188 kts | 62° |
| 2026-05-01 12:28 | 14.38847 | 120.80337 | 4191 ft | 192 kts | 62° |
| 2026-05-01 12:28 | 14.39512 | 120.81532 | 3963 ft | 191 kts | 62° |
| 2026-05-01 12:28 | 14.40830 | 120.83901 | 3460 ft | 190 kts | 62° |
| 2026-05-01 12:29 | 14.41489 | 120.85084 | 3208 ft | 189 kts | 63° |
| 2026-05-01 12:29 | 14.42145 | 120.86264 | 2947 ft | 189 kts | 63° |
| 2026-05-01 12:29 | 14.43445 | 120.88603 | 2466 ft | 187 kts | 62° |
| 2026-05-01 12:30 | 14.44695 | 120.90853 | 1999 ft | 170 kts | 62° |
| 2026-05-01 12:30 | 14.45265 | 120.91878 | 1781 ft | 161 kts | 62° |
| 2026-05-01 12:30 | 14.45818 | 120.92873 | 1582 ft | 153 kts | 62° |
| 2026-05-01 12:31 | 14.46330 | 120.93794 | 1396 ft | 146 kts | 63° |
| 2026-05-01 12:31 | 14.46828 | 120.94692 | 1217 ft | 141 kts | 63° |
| 2026-05-01 12:31 | 14.47317 | 120.95572 | 1052 ft | 142 kts | 64° |
| 2026-05-01 12:31 | 14.47807 | 120.96455 | 878 ft | 142 kts | 63° |
| 2026-05-01 12:32 | 14.48277 | 120.97302 | 705 ft | 141 kts | 61° |
| 2026-05-01 12:32 | 14.49251 | 120.99049 | 345 ft | 139 kts | 63° |
| 2026-05-01 12:32 | 14.49720 | 120.99912 | 169 ft | 136 kts | 60° |
| 2026-05-01 12:33 | 14.50179 | 121.00719 | 90 ft | 123 kts | 63° |
| 2026-05-01 12:33 | 14.50514 | 121.01330 | 90 ft | 72 kts | 59° |
| 2026-05-01 12:33 | 14.50727 | 121.01711 | 90 ft | 58 kts | 60° |
| 2026-05-01 12:33 | 14.50901 | 121.02023 | 90 ft | 43 kts | 60° |
| 2026-05-01 12:34 | 14.51030 | 121.02201 | 90 ft | 26 kts | 41° |
| 2026-05-01 12:34 | 14.51118 | 121.02284 | 90 ft | 10 kts | 41° |
| 2026-05-01 12:34 | 14.51172 | 121.02293 | 90 ft | 7 kts | 328° |
| 2026-05-01 12:34 | 14.51179 | 121.02235 | 90 ft | 9 kts | 245° |
| 2026-05-01 12:35 | 14.51142 | 121.02168 | 90 ft | 11 kts | 239° |
| 2026-05-01 12:35 | 14.51098 | 121.02090 | 90 ft | 13 kts | 240° |
| 2026-05-01 12:35 | 14.51051 | 121.02005 | 90 ft | 14 kts | 240° |
| 2026-05-01 12:35 | 14.50999 | 121.01911 | 90 ft | 15 kts | 240° |
| 2026-05-01 12:36 | 14.50943 | 121.01813 | 90 ft | 16 kts | 240° |
| 2026-05-01 12:36 | 14.50885 | 121.01707 | 90 ft | 17 kts | 240° |
| 2026-05-01 12:36 | 14.50824 | 121.01598 | 90 ft | 17 kts | 240° |
| 2026-05-01 12:36 | 14.50761 | 121.01484 | 90 ft | 18 kts | 240° |
| 2026-05-01 12:37 | 14.50696 | 121.01368 | 90 ft | 18 kts | 240° |
| 2026-05-01 12:37 | 14.50631 | 121.01249 | 90 ft | 19 kts | 240° |
| 2026-05-01 12:37 | 14.50572 | 121.01144 | 90 ft | 15 kts | 240° |
| 2026-05-01 12:37 | 14.50516 | 121.01044 | 90 ft | 16 kts | 240° |
| 2026-05-01 12:38 | 14.50457 | 121.00938 | 90 ft | 17 kts | 240° |
| 2026-05-01 12:38 | 14.50408 | 121.00848 | 90 ft | 14 kts | 240° |
| 2026-05-01 12:38 | 14.50377 | 121.00772 | 90 ft | 10 kts | 266° |
| 2026-05-01 12:38 | 14.50387 | 121.00691 | 90 ft | 9 kts | 274° |
| 2026-05-01 12:39 | 14.50371 | 121.00626 | 90 ft | 7 kts | 261° |
| 2026-05-01 12:39 | 14.50400 | 121.00575 | 90 ft | 9 kts | 309° |
| 2026-05-01 12:39 | 14.50437 | 121.00530 | 90 ft | 7 kts | 310° |
| 2026-05-01 12:39 | 14.50450 | 121.00515 | 90 ft | 0 kts | 310° |